createdAt,value
2022-11-20T00:00:48.473Z,100229.48
2022-11-20T00:03:26.082Z,100230.82
2022-11-20T00:06:04.776Z,100233.95
2022-11-20T00:08:38.723Z,100233.25
2022-11-20T00:11:16.138Z,100233.35
2022-11-20T00:13:51.800Z,100235.95
2022-11-20T00:16:27.423Z,100237.48
2022-11-20T00:19:00.929Z,100236.37
2022-11-20T00:21:34.515Z,100236.75
2022-11-20T00:24:11.205Z,100235.92
2022-11-20T00:26:44.754Z,100236.19
2022-11-20T00:29:18.725Z,100229.10
2022-11-20T00:31:52.193Z,100231.20
2022-11-20T00:34:25.441Z,100227.58
2022-11-20T00:36:59.112Z,100228.65
2022-11-20T00:39:33.070Z,100226.85
2022-11-20T00:42:07.103Z,100223.77
2022-11-20T00:44:41.128Z,100225.27
2022-11-20T00:47:14.783Z,100228.34
2022-11-20T00:49:48.642Z,100226.36
2022-11-20T00:52:22.470Z,100222.71
2022-11-20T00:54:56.254Z,100218.14
2022-11-20T00:57:30.044Z,100212.86
2022-11-20T01:00:03.652Z,100213.64
2022-11-20T01:02:37.389Z,100211.05
2022-11-20T01:05:11.516Z,100208.83
2022-11-20T01:07:45.157Z,100203.26
2022-11-20T01:10:19.185Z,100196.80
2022-11-20T01:13:13.365Z,100190.81
2022-11-20T01:15:47.074Z,100188.31
2022-11-20T01:18:20.552Z,100191.08
2022-11-20T01:20:54.629Z,100193.39
2022-11-20T01:23:28.076Z,100185.36
2022-11-20T01:26:01.649Z,100185.33
2022-11-20T01:28:35.787Z,100181.46
2022-11-20T01:31:18.135Z,100178.45
2022-11-20T01:33:53.976Z,100174.27
2022-11-20T01:36:31.291Z,100172.17
2022-11-20T01:39:06.994Z,100172.67
2022-11-20T01:41:58.772Z,100169.21
2022-11-20T01:44:51.158Z,100165.61
2022-11-20T01:47:29.815Z,100169.32
2022-11-20T01:50:07.143Z,100172.14
2022-11-20T01:52:48.594Z,100176.31
2022-11-20T01:55:26.599Z,100187.70
2022-11-20T01:58:00.608Z,100191.67
2022-11-20T02:00:34.118Z,100193.81
2022-11-20T02:03:12.403Z,100195.20
2022-11-20T02:05:50.604Z,100198.90
2022-11-20T02:08:24.520Z,100201.35
2022-11-20T02:10:58.241Z,100200.23
2022-11-20T02:13:48.754Z,100193.23
2022-11-20T02:16:26.650Z,100188.66
2022-11-20T02:19:01.986Z,100182.66
2022-11-20T02:21:43.661Z,100185.96
2022-11-20T02:24:20.063Z,100187.27
2022-11-20T02:26:56.840Z,100187.23
2022-11-20T02:29:35.116Z,100186.89
2022-11-20T02:32:08.599Z,100188.43
2022-11-20T02:34:42.474Z,100184.36
2022-11-20T02:37:16.489Z,100187.60
2022-11-20T02:39:51.668Z,100188.88
2022-11-20T02:42:25.556Z,100191.30
2022-11-20T02:44:59.314Z,100191.27
2022-11-20T02:47:32.384Z,100183.88
2022-11-20T02:50:06.406Z,100183.22
2022-11-20T02:52:40.225Z,100180.79
2022-11-20T02:55:14.184Z,100179.96
2022-11-20T02:57:48.385Z,100175.63
2022-11-20T03:00:22.610Z,100175.09
2022-11-20T03:02:56.224Z,100172.35
2022-11-20T03:05:29.541Z,100175.42
2022-11-20T03:08:03.036Z,100177.00
2022-11-20T03:10:36.459Z,100172.86
2022-11-20T03:13:10.061Z,100172.44
2022-11-20T03:15:43.789Z,100170.75
2022-11-20T03:18:17.153Z,100166.98
2022-11-20T03:20:50.604Z,100165.41
2022-11-20T03:23:23.907Z,100164.47
2022-11-20T03:25:57.570Z,100160.48
2022-11-20T03:28:31.268Z,100159.70
2022-11-20T03:31:09.822Z,100160.02
2022-11-20T03:33:44.865Z,100163.35
2022-11-20T03:36:20.151Z,100163.95
2022-11-20T03:38:55.499Z,100161.40
2022-11-20T03:41:31.116Z,100160.69
2022-11-20T03:44:06.479Z,100160.98
2022-11-20T03:46:40.459Z,100157.34
2022-11-20T03:49:13.898Z,100153.36
2022-11-20T03:51:48.545Z,100145.79
2022-11-20T03:54:22.182Z,100148.08
2022-11-20T03:56:56.060Z,100148.32
2022-11-20T03:59:29.351Z,100147.85
2022-11-20T04:02:02.868Z,100151.66
2022-11-20T04:04:36.479Z,100153.76
2022-11-20T04:07:10.274Z,100154.36
2022-11-20T04:09:43.558Z,100157.13
2022-11-20T04:12:16.763Z,100154.52
2022-11-20T04:14:50.711Z,100153.12
2022-11-20T04:17:24.159Z,100151.35
2022-11-20T04:19:57.422Z,100152.14
2022-11-20T04:22:30.936Z,100153.91
2022-11-20T04:25:04.979Z,100155.26
2022-11-20T04:27:38.650Z,100157.25
2022-11-20T04:30:14.293Z,100156.00
2022-11-20T04:32:47.712Z,100155.05
2022-11-20T04:35:21.383Z,100154.16
2022-11-20T04:37:57.255Z,100157.63
2022-11-20T04:40:30.999Z,100154.57
2022-11-20T04:43:04.532Z,100152.39
2022-11-20T04:45:37.866Z,100151.98
2022-11-20T04:48:11.267Z,100148.54
2022-11-20T04:50:46.032Z,100148.85
2022-11-20T04:53:20.382Z,100151.24
2022-11-20T04:55:54.429Z,100155.02
2022-11-20T04:58:28.223Z,100151.00
2022-11-20T05:01:07.696Z,100149.10
2022-11-20T05:03:42.672Z,100148.30
2022-11-20T05:06:17.812Z,100147.97
2022-11-20T05:09:00.619Z,100147.77
2022-11-20T05:11:34.640Z,100148.33
2022-11-20T05:14:08.139Z,100148.74
2022-11-20T05:16:42.311Z,100149.83
2022-11-20T05:19:15.980Z,100146.46
2022-11-20T05:21:49.748Z,100142.48
2022-11-20T05:24:23.375Z,100144.50
2022-11-20T05:26:57.141Z,100139.96
2022-11-20T05:29:30.703Z,100139.58
2022-11-20T05:32:04.451Z,100138.65
2022-11-20T05:34:38.095Z,100133.16
2022-11-20T05:37:11.252Z,100131.73
2022-11-20T05:39:44.703Z,100129.69
2022-11-20T05:42:33.899Z,100130.56
2022-11-20T05:45:09.521Z,100131.20
2022-11-20T05:47:42.887Z,100132.05
2022-11-20T05:50:16.821Z,100126.61
2022-11-20T05:52:50.509Z,100129.60
2022-11-20T05:55:24.289Z,100133.83
2022-11-20T05:57:58.692Z,100132.04
2022-11-20T06:00:32.180Z,100127.54
2022-11-20T06:03:05.841Z,100122.85
2022-11-20T06:05:39.547Z,100113.10
2022-11-20T06:08:13.186Z,100112.83
2022-11-20T06:10:46.712Z,100112.17
2022-11-20T06:13:20.182Z,100104.95
2022-11-20T06:15:55.339Z,100109.52
2022-11-20T06:18:30.936Z,100110.97
2022-11-20T06:21:10.238Z,100111.27
2022-11-20T06:23:46.197Z,100107.02
2022-11-20T06:26:20.988Z,100101.23
2022-11-20T06:28:55.511Z,100101.88
2022-11-20T06:31:30.063Z,100102.27
2022-11-20T06:34:03.582Z,100102.73
2022-11-20T06:36:37.794Z,100103.36
2022-11-20T06:39:11.031Z,100103.35
2022-11-20T06:41:44.869Z,100106.89
2022-11-20T06:44:18.605Z,100106.29
2022-11-20T06:46:52.393Z,100107.93
2022-11-20T06:49:26.690Z,100110.19
2022-11-20T06:52:00.121Z,100107.65
2022-11-20T06:54:33.391Z,100111.65
2022-11-20T06:57:06.931Z,100104.83
2022-11-20T06:59:40.658Z,100097.17
2022-11-20T07:02:15.395Z,100095.87
2022-11-20T07:04:49.237Z,100093.58
2022-11-20T07:07:23.096Z,100093.68
2022-11-20T07:09:56.812Z,100094.57
2022-11-20T07:12:30.013Z,100090.21
2022-11-20T07:15:03.746Z,100084.27
2022-11-20T07:17:37.135Z,100081.81
2022-11-20T07:20:12.465Z,100083.57
2022-11-20T07:22:46.141Z,100088.81
2022-11-20T07:25:19.878Z,100088.46
2022-11-20T07:27:53.501Z,100087.05
2022-11-20T07:30:27.579Z,100088.08
2022-11-20T07:33:01.694Z,100089.45
2022-11-20T07:35:35.718Z,100092.93
2022-11-20T07:38:09.439Z,100089.22
2022-11-20T07:40:43.132Z,100085.77
2022-11-20T07:43:16.697Z,100085.83
2022-11-20T07:45:50.316Z,100085.34
2022-11-20T07:48:24.105Z,100082.63
2022-11-20T07:50:59.409Z,100082.67
2022-11-20T07:53:33.429Z,100087.31
2022-11-20T07:56:08.124Z,100082.58
2022-11-20T07:58:41.440Z,100079.15
2022-11-20T08:01:15.200Z,100078.86
2022-11-20T08:03:48.600Z,100074.65
2022-11-20T08:06:22.173Z,100069.92
2022-11-20T08:08:55.726Z,100071.41
2022-11-20T08:11:47.521Z,100073.55
2022-11-20T08:14:21.090Z,100071.29
2022-11-20T08:16:54.733Z,100072.05
2022-11-20T08:19:28.048Z,100067.46
2022-11-20T08:22:01.747Z,100070.08
2022-11-20T08:24:35.426Z,100067.13
2022-11-20T08:27:08.820Z,100061.88
2022-11-20T08:29:42.465Z,100064.65
2022-11-20T08:32:16.470Z,100061.80
2022-11-20T08:34:49.852Z,100060.81
2022-11-20T08:37:23.676Z,100056.91
2022-11-20T08:39:58.399Z,100056.95
2022-11-20T08:42:31.664Z,100057.99
2022-11-20T08:45:06.024Z,100055.63
2022-11-20T08:47:39.299Z,100050.52
2022-11-20T08:50:14.885Z,100042.75
2022-11-20T08:52:48.292Z,100029.98
2022-11-20T08:55:22.427Z,100020.39
2022-11-20T08:57:56.390Z,100013.73
2022-11-20T09:00:29.797Z,100008.20
2022-11-20T09:03:03.459Z,100010.95
2022-11-20T09:05:37.087Z,100009.13
2022-11-20T09:08:11.088Z,100007.50
2022-11-20T09:10:44.527Z,100003.94
2022-11-20T09:13:18.436Z,100004.76
2022-11-20T09:15:57.634Z,100006.09
2022-11-20T09:18:33.117Z,100008.73
2022-11-20T09:21:09.055Z,100008.20
2022-11-20T09:23:43.092Z,100009.18
2022-11-20T09:26:17.184Z,100005.52
2022-11-20T09:28:55.338Z,100008.55
2022-11-20T09:31:30.707Z,100005.63
2022-11-20T09:34:04.321Z,100003.62
2022-11-20T09:36:38.000Z,100007.11
2022-11-20T09:39:11.886Z,100002.96
2022-11-20T09:42:04.453Z,99995.30
2022-11-20T09:44:59.047Z,99996.88
2022-11-20T09:47:45.095Z,99997.79
2022-11-20T09:50:32.300Z,99998.02
2022-11-20T09:53:22.781Z,100002.39
2022-11-20T09:55:57.577Z,100000.90
2022-11-20T09:58:38.726Z,99994.20
2022-11-20T10:01:16.765Z,99988.54
2022-11-20T10:04:00.183Z,99986.52
2022-11-20T10:06:37.210Z,99983.27
2022-11-20T10:09:25.056Z,99983.17
2022-11-20T10:12:09.343Z,99983.12
2022-11-20T10:14:55.281Z,99979.63
2022-11-20T10:17:42.311Z,99976.91
2022-11-20T10:20:24.378Z,99971.13
2022-11-20T10:23:15.028Z,99970.95
2022-11-20T10:25:54.422Z,99966.52
2022-11-20T10:28:53.964Z,99956.71
2022-11-20T10:31:38.608Z,99946.83
2022-11-20T10:34:23.032Z,99942.27
2022-11-20T10:37:05.066Z,99938.41
2022-11-20T10:39:44.440Z,99935.21
2022-11-20T10:42:27.833Z,99935.45
2022-11-20T10:45:18.868Z,99936.95
2022-11-20T10:47:53.029Z,99936.01
2022-11-20T10:50:28.231Z,99937.02
2022-11-20T10:53:14.856Z,99938.96
2022-11-20T10:55:53.605Z,99940.57
2022-11-20T10:58:38.915Z,99938.63
2022-11-20T11:01:18.830Z,99938.40
2022-11-20T11:03:54.329Z,99935.29
2022-11-20T11:06:35.579Z,99931.33
2022-11-20T11:09:15.695Z,99932.09
2022-11-20T11:11:49.172Z,99932.30
2022-11-20T11:14:25.850Z,99927.02
2022-11-20T11:17:00.612Z,99931.21
2022-11-20T11:19:34.219Z,99930.18
2022-11-20T11:22:22.894Z,99932.17
2022-11-20T11:24:57.499Z,99929.04
2022-11-20T11:27:31.222Z,99932.24
2022-11-20T11:30:18.617Z,99927.64
2022-11-20T11:32:52.552Z,99923.29
2022-11-20T11:35:31.433Z,99916.89
2022-11-20T11:38:19.261Z,99908.78
2022-11-20T11:40:56.162Z,99909.10
2022-11-20T11:43:50.826Z,99908.75
2022-11-20T11:46:39.040Z,99908.23
2022-11-20T11:49:21.948Z,99906.69
2022-11-20T11:52:14.555Z,99898.59
2022-11-20T11:54:54.007Z,99898.89
2022-11-20T11:57:33.072Z,99896.16
2022-11-20T12:00:13.125Z,99896.96
2022-11-20T12:03:00.727Z,99894.69
2022-11-20T12:05:44.380Z,99892.76
2022-11-20T12:08:25.794Z,99884.42
2022-11-20T12:11:06.327Z,99877.63
2022-11-20T12:13:49.913Z,99876.15
2022-11-20T12:16:25.536Z,99881.47
2022-11-20T12:18:59.244Z,99887.32
2022-11-20T12:21:44.841Z,99883.80
2022-11-20T12:24:44.259Z,99881.42
2022-11-20T12:27:43.054Z,99873.95
2022-11-20T12:30:19.101Z,99870.77
2022-11-20T12:33:15.147Z,99868.13
2022-11-20T12:36:05.455Z,99864.91
2022-11-20T12:39:10.304Z,99861.11
2022-11-20T12:42:18.663Z,99854.08
2022-11-20T12:45:20.811Z,99852.46
2022-11-20T12:48:09.037Z,99852.35
2022-11-20T12:54:02.701Z,99852.38
2022-11-20T12:56:44.540Z,99848.72
2022-11-20T12:59:37.154Z,99842.36
2022-11-20T13:02:27.235Z,99843.58
2022-11-20T13:05:21.581Z,99837.72
2022-11-20T13:07:59.350Z,99829.59
2022-11-20T13:10:46.613Z,99828.98
2022-11-20T13:13:27.412Z,99832.13
2022-11-20T13:16:08.716Z,99832.08
2022-11-20T13:18:47.226Z,99831.15
2022-11-20T13:21:24.047Z,99828.22
2022-11-20T13:24:08.811Z,99820.15
2022-11-20T13:26:43.069Z,99819.94
2022-11-20T13:29:21.704Z,99818.65
2022-11-20T13:31:53.826Z,99818.20
2022-11-20T13:34:35.828Z,99818.11
2022-11-20T13:37:30.909Z,99821.59
2022-11-20T13:40:25.530Z,99822.95
2022-11-20T13:43:11.069Z,99821.42
2022-11-20T13:45:57.741Z,99818.83
2022-11-20T13:48:36.108Z,99817.91
2022-11-20T13:51:33.648Z,99815.05
2022-11-20T13:54:38.269Z,99813.42
2022-11-20T13:57:31.047Z,99811.50
2022-11-20T14:00:14.453Z,99805.28
2022-11-20T14:02:57.180Z,99800.99
2022-11-20T14:05:31.105Z,99802.95
2022-11-20T14:08:09.594Z,99800.33
2022-11-20T14:10:43.857Z,99795.45
2022-11-20T14:13:23.114Z,99791.02
2022-11-20T14:16:01.519Z,99791.02
2022-11-20T14:18:35.995Z,99793.52
2022-11-20T14:21:13.745Z,99797.23
2022-11-20T14:23:48.456Z,99795.45
2022-11-20T14:26:23.561Z,99796.14
2022-11-20T14:28:58.556Z,99795.67
2022-11-20T14:31:33.927Z,99793.27
2022-11-20T14:34:08.773Z,99789.87
2022-11-20T14:36:43.362Z,99782.27
2022-11-20T14:39:25.960Z,99779.16
2022-11-20T14:42:00.596Z,99779.11
2022-11-20T14:44:38.831Z,99778.23
2022-11-20T14:47:19.388Z,99779.10
2022-11-20T14:49:54.326Z,99779.83
2022-11-20T14:52:30.291Z,99781.49
2022-11-20T14:55:05.354Z,99779.42
2022-11-20T14:57:40.602Z,99778.11
2022-11-20T15:00:26.137Z,99776.16
2022-11-20T15:03:00.536Z,99772.71
2022-11-20T15:08:33.080Z,99769.48
2022-11-20T15:11:18.888Z,99771.37
2022-11-20T15:13:54.145Z,99773.42
2022-11-20T15:16:29.779Z,99772.52
2022-11-20T15:19:05.173Z,99771.55
2022-11-20T15:21:39.226Z,99774.48
2022-11-20T15:24:14.676Z,99775.33
2022-11-20T15:26:49.591Z,99774.38
2022-11-20T15:29:26.418Z,99779.30
2022-11-20T15:32:00.588Z,99784.92
2022-11-20T15:34:35.216Z,99785.29
2022-11-20T15:37:09.343Z,99784.12
2022-11-20T15:39:47.495Z,99784.39
2022-11-20T15:42:21.781Z,99777.76
2022-11-20T15:44:55.576Z,99773.75
2022-11-20T15:47:33.019Z,99772.61
2022-11-20T15:50:13.017Z,99773.02
2022-11-20T15:52:48.210Z,99769.48
2022-11-20T15:55:23.219Z,99769.56
2022-11-20T15:57:58.144Z,99771.92
2022-11-20T16:00:32.860Z,99771.03
2022-11-20T16:03:07.993Z,99768.95
2022-11-20T16:05:43.514Z,99764.39
2022-11-20T16:08:18.708Z,99759.89
2022-11-20T16:10:52.848Z,99753.56
2022-11-20T16:13:44.691Z,99749.52
2022-11-20T16:16:24.730Z,99749.42
2022-11-20T16:18:59.645Z,99755.33
2022-11-20T16:21:36.246Z,99758.80
2022-11-20T16:24:14.785Z,99757.45
2022-11-20T16:26:49.132Z,99753.16
2022-11-20T16:29:24.231Z,99753.99
2022-11-20T16:32:02.578Z,99756.20
2022-11-20T16:34:37.687Z,99759.99
2022-11-20T16:37:12.478Z,99761.86
2022-11-20T16:39:48.092Z,99770.30
2022-11-20T16:42:22.917Z,99769.39
2022-11-20T16:44:57.644Z,99765.67
2022-11-20T16:47:37.013Z,99764.59
2022-11-20T16:50:13.256Z,99765.95
2022-11-20T16:52:47.803Z,99764.09
2022-11-20T16:55:22.339Z,99761.30
2022-11-20T16:57:57.690Z,99761.20
2022-11-20T17:00:31.693Z,99761.08
2022-11-20T17:03:06.689Z,99758.21
2022-11-20T17:05:45.053Z,99755.09
2022-11-20T17:08:19.376Z,99753.13
2022-11-20T17:10:53.815Z,99746.85
2022-11-20T17:13:30.068Z,99754.03
2022-11-20T17:16:07.300Z,99754.15
2022-11-20T17:18:42.335Z,99752.37
2022-11-20T17:21:17.855Z,99751.12
2022-11-20T17:23:52.299Z,99751.73
2022-11-20T17:26:29.094Z,99749.48
2022-11-20T17:29:06.693Z,99750.72
2022-11-20T17:31:44.900Z,99748.46
2022-11-20T17:34:19.925Z,99746.39
2022-11-20T17:36:56.458Z,99745.56
2022-11-20T17:39:31.091Z,99741.56
2022-11-20T17:42:22.884Z,99735.52
2022-11-20T17:44:59.778Z,99732.29
2022-11-20T17:47:37.341Z,99725.67
2022-11-20T17:50:12.735Z,99722.42
2022-11-20T17:52:48.547Z,99718.57
2022-11-20T17:55:23.595Z,99721.54
2022-11-20T17:58:03.870Z,99719.18
2022-11-20T18:00:38.170Z,99712.74
2022-11-20T18:03:13.015Z,99709.22
2022-11-20T18:05:47.989Z,99707.85
2022-11-20T18:08:22.537Z,99700.14
2022-11-20T18:10:57.142Z,99697.42
2022-11-20T18:13:52.341Z,99696.23
2022-11-20T18:16:28.028Z,99695.43
2022-11-20T18:19:03.989Z,99689.39
2022-11-20T18:21:39.153Z,99686.12
2022-11-20T18:24:15.360Z,99682.85
2022-11-20T18:26:50.831Z,99680.35
2022-11-20T18:29:26.226Z,99676.47
2022-11-20T18:32:02.637Z,99678.26
2022-11-20T18:34:37.822Z,99680.41
2022-11-20T18:37:15.640Z,99682.59
2022-11-20T18:39:51.351Z,99686.73
2022-11-20T18:42:43.825Z,99691.04
2022-11-20T18:45:20.472Z,99687.29
2022-11-20T18:47:56.952Z,99692.08
2022-11-20T18:50:32.265Z,99692.08
2022-11-20T18:53:08.623Z,99684.73
2022-11-20T18:55:43.266Z,99684.73
2022-11-20T18:58:17.545Z,99684.11
2022-11-20T19:00:54.545Z,99682.81
2022-11-20T19:03:31.000Z,99681.31
2022-11-20T19:06:05.994Z,99681.92
2022-11-20T19:08:41.937Z,99671.16
2022-11-20T19:11:17.369Z,99666.82
2022-11-20T19:13:51.771Z,99663.56
2022-11-20T19:16:27.405Z,99656.92
2022-11-20T19:19:03.775Z,99650.14
2022-11-20T19:21:38.969Z,99646.73
2022-11-20T19:24:14.042Z,99647.46
2022-11-20T19:26:49.086Z,99640.55
2022-11-20T19:29:25.103Z,99640.92
2022-11-20T19:32:01.085Z,99638.38
2022-11-20T19:34:36.140Z,99633.89
2022-11-20T19:37:11.873Z,99632.52
2022-11-20T19:39:46.570Z,99631.27
2022-11-20T19:42:21.601Z,99623.70
2022-11-20T19:44:59.131Z,99621.31
2022-11-20T19:48:06.160Z,99618.29
2022-11-20T19:50:31.395Z,99621.18
2022-11-20T19:53:08.818Z,99622.16
2022-11-20T19:55:44.830Z,99623.05
2022-11-20T19:58:23.627Z,99625.05
2022-11-20T20:00:59.031Z,99622.90
2022-11-20T20:03:33.578Z,99620.19
2022-11-20T20:06:09.460Z,99617.73
2022-11-20T20:08:44.633Z,99617.64
2022-11-20T20:11:20.867Z,99620.31
2022-11-20T20:13:57.959Z,99621.02
2022-11-20T20:16:33.378Z,99617.94
2022-11-20T20:19:08.993Z,99619.34
2022-11-20T20:21:43.771Z,99616.88
2022-11-20T20:24:18.959Z,99616.25
2022-11-20T20:26:57.961Z,99618.83
2022-11-20T20:29:34.278Z,99618.43
2022-11-20T20:32:09.449Z,99618.42
2022-11-20T20:34:43.481Z,99621.84
2022-11-20T20:37:18.711Z,99623.98
2022-11-20T20:39:53.606Z,99619.91
2022-11-20T20:42:28.993Z,99614.89
2022-11-20T20:45:11.637Z,99613.25
2022-11-20T20:47:55.821Z,99617.65
2022-11-20T20:50:34.954Z,99617.77
2022-11-20T20:53:09.509Z,99615.69
2022-11-20T20:55:44.269Z,99612.95
2022-11-20T20:58:18.376Z,99609.47
2022-11-20T21:00:53.107Z,99610.59
2022-11-20T21:03:30.673Z,99611.25
2022-11-20T21:06:08.748Z,99602.95
2022-11-20T21:08:44.655Z,99598.85
2022-11-20T21:11:20.911Z,99597.67
2022-11-20T21:13:54.546Z,99594.83
2022-11-20T21:16:42.157Z,99596.84
2022-11-20T21:19:16.942Z,99601.61
2022-11-20T21:22:00.845Z,99602.11
2022-11-20T21:24:35.778Z,99598.46
2022-11-20T21:27:09.819Z,99597.27
2022-11-20T21:29:43.887Z,99592.55
2022-11-20T21:32:18.026Z,99590.95
2022-11-20T21:34:52.351Z,99594.84
2022-11-20T21:37:26.518Z,99595.77
2022-11-20T21:40:00.075Z,99594.17
2022-11-20T21:42:33.702Z,99597.62
2022-11-20T21:45:08.387Z,99599.61
2022-11-20T21:47:41.855Z,99601.56
2022-11-20T21:50:15.543Z,99601.96
2022-11-20T21:52:49.336Z,99601.35
2022-11-20T21:55:23.423Z,99606.06
2022-11-20T21:57:57.016Z,99607.47
2022-11-20T22:00:30.297Z,99606.13
2022-11-20T22:03:03.994Z,99604.71
2022-11-20T22:05:37.672Z,99599.40
2022-11-20T22:08:11.361Z,99596.14
2022-11-20T22:10:44.562Z,99600.16
2022-11-20T22:13:36.299Z,99604.70
2022-11-20T22:16:10.399Z,99609.67
2022-11-20T22:18:47.498Z,99607.66
2022-11-20T22:21:22.454Z,99605.98
2022-11-20T22:23:56.764Z,99602.05
2022-11-20T22:26:34.930Z,99599.11
2022-11-20T22:29:17.219Z,99598.63
2022-11-20T22:31:52.844Z,99598.75
2022-11-20T22:34:26.434Z,99601.67
2022-11-20T22:37:01.037Z,99597.21
2022-11-20T22:39:34.492Z,99599.58
2022-11-20T22:42:08.210Z,99596.59
2022-11-20T22:44:41.790Z,99594.92
2022-11-20T22:47:15.102Z,99594.23
2022-11-20T22:49:49.075Z,99591.96
2022-11-20T22:52:22.415Z,99592.59
2022-11-20T22:54:55.713Z,99597.37
2022-11-20T22:57:29.210Z,99591.58
2022-11-20T23:00:02.616Z,99594.39
2022-11-20T23:02:36.266Z,99596.25
2022-11-20T23:05:10.775Z,99595.40
2022-11-20T23:07:44.896Z,99597.98
2022-11-20T23:10:18.654Z,99600.81
2022-11-20T23:12:51.866Z,99605.02
2022-11-20T23:15:25.549Z,99603.21
2022-11-20T23:17:58.913Z,99598.33
2022-11-20T23:20:32.885Z,99594.00
2022-11-20T23:23:06.478Z,99593.96
2022-11-20T23:25:39.881Z,99602.23
2022-11-20T23:28:13.636Z,99604.92
2022-11-20T23:30:49.593Z,99610.85
2022-11-20T23:33:22.851Z,99615.57
2022-11-20T23:35:56.472Z,99616.39
2022-11-20T23:38:30.252Z,99614.21
2022-11-20T23:41:04.204Z,99616.40
2022-11-20T23:43:37.769Z,99616.48
2022-11-20T23:46:16.464Z,99615.35
2022-11-20T23:48:50.645Z,99612.87
2022-11-20T23:51:24.532Z,99614.64
2022-11-20T23:54:03.272Z,99611.57
2022-11-20T23:56:38.518Z,99606.52
2022-11-20T23:59:12.364Z,99605.95
